TimePDT,TemperatureF,Dew PointF,Humidity,Sea Level PressureIn,VisibilityMPH,Wind Direction,Wind SpeedMPH,Gust SpeedMPH,PrecipitationIn,Events,Conditions,WindDirDegrees,DateUTC
12:15 AM,53.6,41.0,62,30.11,10.0,WNW,15.0,-,N/A,,Mostly Cloudy,300,2013-05-27 07:15:00
12:35 AM,55.4,39.2,54,30.10,10.0,WNW,13.8,20.7,N/A,,Mostly Cloudy,290,2013-05-27 07:35:00
12:55 AM,53.6,39.2,58,30.11,10.0,WNW,13.8,19.6,N/A,,Partly Cloudy,300,2013-05-27 07:55:00
1:15 AM,53.6,39.2,58,30.10,10.0,WNW,15.0,19.6,N/A,,Clear,290,2013-05-27 08:15:00
1:35 AM,53.6,39.2,58,30.10,10.0,WNW,17.3,-,N/A,,Clear,300,2013-05-27 08:35:00
1:55 AM,53.6,39.2,58,30.10,10.0,NW,15.0,-,N/A,,Clear,310,2013-05-27 08:55:00
2:15 AM,51.8,39.2,62,30.10,10.0,West,16.1,-,N/A,,Scattered Clouds,280,2013-05-27 09:15:00
2:35 AM,50.0,39.2,66,30.10,10.0,WNW,11.5,-,N/A,,Scattered Clouds,290,2013-05-27 09:35:00
2:55 AM,50.0,41.0,71,30.10,10.0,WNW,13.8,19.6,N/A,,Scattered Clouds,290,2013-05-27 09:55:00
3:15 AM,51.8,41.0,67,30.09,10.0,WNW,13.8,-,N/A,,Partly Cloudy,300,2013-05-27 10:15:00
3:35 AM,50.0,41.0,71,30.09,10.0,WNW,17.3,-,N/A,,Clear,290,2013-05-27 10:35:00
3:55 AM,50.0,41.0,71,30.08,10.0,WNW,13.8,19.6,N/A,,Clear,300,2013-05-27 10:55:00
4:15 AM,50.0,41.0,71,30.08,10.0,WNW,13.8,18.4,N/A,,Clear,290,2013-05-27 11:15:00
4:35 AM,48.2,41.0,76,30.08,10.0,WNW,12.7,-,N/A,,Clear,290,2013-05-27 11:35:00
4:55 AM,48.2,41.0,76,30.07,10.0,WNW,12.7,-,N/A,,Clear,290,2013-05-27 11:55:00
5:15 AM,48.2,41.0,76,30.07,10.0,WNW,12.7,-,N/A,,Clear,300,2013-05-27 12:15:00
5:35 AM,46.4,41.0,81,30.07,10.0,WNW,8.1,-,N/A,,Clear,300,2013-05-27 12:35:00
5:55 AM,44.6,41.0,87,30.08,10.0,NNW,10.4,-,N/A,,Clear,330,2013-05-27 12:55:00
6:15 AM,44.6,42.8,93,30.08,9.0,NW,11.5,-,N/A,,Clear,310,2013-05-27 13:15:00
6:35 AM,46.4,44.6,93,30.08,10.0,NW,12.7,-,N/A,,Clear,310,2013-05-27 13:35:00
6:55 AM,50.0,42.8,76,30.08,10.0,WNW,13.8,-,N/A,,Clear,290,2013-05-27 13:55:00
7:15 AM,51.8,41.0,67,30.08,10.0,West,12.7,-,N/A,,Clear,280,2013-05-27 14:15:00
7:35 AM,53.6,42.8,67,30.09,10.0,NW,11.5,-,N/A,,Clear,320,2013-05-27 14:35:00
7:55 AM,50.0,44.6,82,30.09,10.0,NW,11.5,-,N/A,,Clear,310,2013-05-27 14:55:00
8:15 AM,51.8,42.8,71,30.09,10.0,WNW,9.2,-,N/A,,Clear,300,2013-05-27 15:15:00
8:35 AM,53.6,42.8,67,30.09,10.0,NW,10.4,-,N/A,,Clear,310,2013-05-27 15:35:00
8:55 AM,55.4,42.8,63,30.09,10.0,NW,11.5,17.3,N/A,,Clear,320,2013-05-27 15:55:00
9:15 AM,55.4,41.0,58,30.09,10.0,NW,12.7,-,N/A,,Clear,320,2013-05-27 16:15:00
9:35 AM,55.4,41.0,58,30.09,10.0,NW,15.0,20.7,N/A,,Clear,310,2013-05-27 16:35:00
9:55 AM,57.2,41.0,55,30.09,10.0,NW,16.1,-,N/A,,Clear,310,2013-05-27 16:55:00
10:15 AM,59.0,41.0,51,30.09,10.0,NW,17.3,23.0,N/A,,Clear,320,2013-05-27 17:15:00
10:35 AM,59.0,41.0,51,30.10,10.0,NW,17.3,23.0,N/A,,Clear,320,2013-05-27 17:35:00
10:55 AM,59.0,41.0,51,30.09,10.0,NW,17.3,23.0,N/A,,Clear,320,2013-05-27 17:55:00
11:15 AM,60.8,41.0,48,30.09,10.0,NW,17.3,25.3,N/A,,Clear,320,2013-05-27 18:15:00
11:35 AM,60.8,41.0,48,30.10,10.0,NNW,19.6,24.2,N/A,,Clear,330,2013-05-27 18:35:00
11:55 AM,62.6,41.0,45,30.09,10.0,NW,19.6,26.5,N/A,,Clear,320,2013-05-27 18:55:00
12:15 PM,62.6,41.0,45,30.09,10.0,NW,18.4,26.5,N/A,,Clear,310,2013-05-27 19:15:00
12:35 PM,64.4,41.0,42,30.08,10.0,NW,21.9,27.6,N/A,,Clear,310,2013-05-27 19:35:00
12:55 PM,64.4,41.0,42,30.07,10.0,NW,23.0,32.2,N/A,,Clear,310,2013-05-27 19:55:00
1:15 PM,64.4,41.0,42,30.06,10.0,NW,24.2,32.2,N/A,,Clear,320,2013-05-27 20:15:00
1:35 PM,64.4,41.0,42,30.06,10.0,NW,23.0,32.2,N/A,,Clear,310,2013-05-27 20:35:00
1:55 PM,62.6,41.0,45,30.06,10.0,NW,23.0,32.2,N/A,,Clear,310,2013-05-27 20:55:00
2:15 PM,64.4,41.0,42,30.05,10.0,NW,26.5,34.5,N/A,,Clear,310,2013-05-27 21:15:00
2:35 PM,64.4,39.2,40,30.04,10.0,NW,25.3,35.7,N/A,,Clear,320,2013-05-27 21:35:00
2:55 PM,64.4,39.2,40,30.05,10.0,NW,21.9,33.4,N/A,,Clear,320,2013-05-27 21:55:00
3:15 PM,64.4,37.4,37,30.05,10.0,NW,27.6,33.4,N/A,,Clear,310,2013-05-27 22:15:00
3:35 PM,64.4,39.2,40,30.04,10.0,NW,25.3,34.5,N/A,,Clear,320,2013-05-27 22:35:00
3:55 PM,64.4,37.4,37,30.04,10.0,NW,25.3,33.4,N/A,,Clear,310,2013-05-27 22:55:00
4:15 PM,64.4,37.4,37,30.04,10.0,WNW,23.0,38.0,N/A,,Clear,290,2013-05-27 23:15:00
4:35 PM,62.6,35.6,37,30.03,10.0,NW,28.8,36.8,N/A,,Clear,310,2013-05-27 23:35:00
4:55 PM,64.4,35.6,34,30.03,10.0,NW,24.2,40.3,N/A,,Clear,310,2013-05-27 23:55:00
5:15 PM,60.8,35.6,39,30.03,10.0,NW,26.5,38.0,N/A,,Clear,310,2013-05-28 00:15:00
5:35 PM,62.6,35.6,37,30.04,10.0,WNW,29.9,44.9,N/A,,Clear,300,2013-05-28 00:35:00
5:55 PM,62.6,35.6,37,30.03,10.0,WNW,25.3,39.1,N/A,,Clear,300,2013-05-28 00:55:00
6:15 PM,59.0,35.6,42,30.02,10.0,NW,24.2,33.4,N/A,,Clear,310,2013-05-28 01:15:00
6:35 PM,60.8,35.6,39,30.02,10.0,NW,23.0,32.2,N/A,,Clear,310,2013-05-28 01:35:00
6:55 PM,59.0,35.6,42,30.02,10.0,NW,19.6,32.2,N/A,,Clear,310,2013-05-28 01:55:00
7:15 PM,59.0,33.8,39,30.02,10.0,NW,20.7,27.6,N/A,,Clear,310,2013-05-28 02:15:00
7:35 PM,57.2,33.8,41,30.02,10.0,WNW,21.9,28.8,N/A,,Clear,300,2013-05-28 02:35:00
7:55 PM,57.2,32.0,38,30.02,10.0,WNW,18.4,31.1,N/A,,Clear,300,2013-05-28 02:55:00
8:15 PM,57.2,32.0,38,30.03,10.0,WNW,15.0,29.9,N/A,,Clear,300,2013-05-28 03:15:00
8:35 PM,57.2,32.0,38,30.02,10.0,WNW,20.7,24.2,N/A,,Clear,290,2013-05-28 03:35:00
8:55 PM,55.4,33.8,44,30.02,10.0,WNW,19.6,25.3,N/A,,Clear,290,2013-05-28 03:55:00
9:15 PM,55.4,33.8,44,30.02,10.0,WNW,18.4,26.5,N/A,,Clear,290,2013-05-28 04:15:00
9:35 PM,55.4,35.6,47,30.03,10.0,WNW,21.9,29.9,N/A,,Clear,300,2013-05-28 04:35:00
9:55 PM,55.4,39.2,54,30.03,10.0,WNW,19.6,26.5,N/A,,Clear,290,2013-05-28 04:55:00
10:15 PM,53.6,39.2,58,30.03,10.0,WNW,21.9,-,N/A,,Clear,300,2013-05-28 05:15:00
10:35 PM,53.6,39.2,58,30.01,10.0,WNW,25.3,28.8,N/A,,Clear,300,2013-05-28 05:35:00
10:55 PM,53.6,41.0,62,30.02,10.0,WNW,25.3,28.8,N/A,,Clear,300,2013-05-28 05:55:00
11:15 PM,53.6,42.8,67,30.00,10.0,NW,19.6,24.2,N/A,,Clear,310,2013-05-28 06:15:00
11:35 PM,53.6,41.0,62,30.00,10.0,WNW,19.6,28.8,N/A,,Clear,300,2013-05-28 06:35:00